Time,TemperatureF,DewpointF,PressureIn,WindDirection,WindDirectionDegrees,WindSpeedMPH,WindSpeedGustMPH,Humidity,HourlyPrecipIn,Conditions,Clouds,dailyrainin,SoftwareType,DateUTC
2013-05-19 00:00:00,62.2,58.0,30.13,ENE,68,1.0,3.0,85,0.00,,,0.00,weatherlink.com 1.10,2013-05-19 04:00:00,
2013-05-19 00:15:00,62.0,58.0,30.12,NE,46,1.0,3.0,85,0.00,,,0.00,weatherlink.com 1.10,2013-05-19 04:15:00,
2013-05-19 00:30:00,61.7,58.0,30.12,ENE,72,2.0,4.0,86,0.00,,,0.00,weatherlink.com 1.10,2013-05-19 04:30:00,
2013-05-19 00:45:00,61.4,57.0,30.12,NNE,26,3.0,3.0,86,0.00,,,0.00,weatherlink.com 1.10,2013-05-19 04:45:00,
2013-05-19 01:00:00,61.4,57.0,30.12,ESE,105,1.0,3.0,86,0.00,,,0.00,weatherlink.com 1.10,2013-05-19 05:00:00,
2013-05-19 01:15:00,61.3,57.0,30.11,NE,41,1.0,2.0,86,0.00,,,0.00,weatherlink.com 1.10,2013-05-19 05:15:00,
2013-05-19 01:30:00,61.3,57.0,30.11,East,86,0.0,2.0,86,0.00,,,0.00,weatherlink.com 1.10,2013-05-19 05:30:00,
2013-05-19 01:45:00,61.5,57.0,30.11,ENE,70,0.0,3.0,86,0.00,,,0.00,weatherlink.com 1.10,2013-05-19 05:45:00,
2013-05-19 02:01:00,61.6,57.0,30.11,ENE,73,2.0,3.0,86,0.00,,,0.00,weatherlink.com 1.10,2013-05-19 06:01:00,
2013-05-19 02:16:00,61.3,57.0,30.10,NE,34,0.0,2.0,86,0.00,,,0.00,weatherlink.com 1.10,2013-05-19 06:16:00,
2013-05-19 02:31:00,61.1,57.0,30.10,NNE,26,0.0,4.0,86,0.00,,,0.00,weatherlink.com 1.10,2013-05-19 06:31:00,
2013-05-19 02:46:00,60.9,57.0,30.10,NE,39,1.0,4.0,87,0.00,,,0.00,weatherlink.com 1.10,2013-05-19 06:46:00,
2013-05-19 03:01:00,60.4,57.0,30.10,ENE,64,1.0,2.0,87,0.00,,,0.00,weatherlink.com 1.10,2013-05-19 07:01:00,
2013-05-19 03:16:00,60.1,57.0,30.10,NNE,20,1.0,3.0,88,0.00,,,0.00,weatherlink.com 1.10,2013-05-19 07:16:00,
2013-05-19 03:31:00,59.8,56.0,30.10,NE,50,0.0,1.0,88,0.00,,,0.00,weatherlink.com 1.10,2013-05-19 07:31:00,
2013-05-19 03:46:00,59.6,56.0,30.10,ENE,64,1.0,3.0,89,0.00,,,0.00,weatherlink.com 1.10,2013-05-19 07:46:00,
2013-05-19 04:01:00,59.6,56.0,30.11,ESE,102,1.0,3.0,89,0.00,,,0.00,weatherlink.com 1.10,2013-05-19 08:01:00,
2013-05-19 04:16:00,59.6,56.0,30.11,NE,37,0.0,3.0,89,0.00,,,0.00,weatherlink.com 1.10,2013-05-19 08:16:00,
2013-05-19 04:31:00,59.4,56.0,30.11,NE,55,0.0,1.0,89,0.00,,,0.00,weatherlink.com 1.10,2013-05-19 08:31:00,
2013-05-19 04:46:00,59.2,56.0,30.11,East,95,0.0,1.0,89,0.00,,,0.00,weatherlink.com 1.10,2013-05-19 08:46:00,
2013-05-19 05:01:00,59.0,56.0,30.11,ENE,75,0.0,2.0,90,0.00,,,0.00,weatherlink.com 1.10,2013-05-19 09:01:00,
2013-05-19 05:16:00,59.2,56.0,30.11,East,89,3.0,3.0,90,0.00,,,0.00,weatherlink.com 1.10,2013-05-19 09:16:00,
2013-05-19 05:31:00,59.4,56.0,30.11,ENE,64,1.0,3.0,89,0.00,,,0.00,weatherlink.com 1.10,2013-05-19 09:31:00,
2013-05-19 05:46:00,59.5,56.0,30.11,East,79,1.0,4.0,89,0.00,,,0.00,weatherlink.com 1.10,2013-05-19 09:46:00,
2013-05-19 06:01:00,59.6,56.0,30.11,NE,46,2.0,3.0,89,0.00,,,0.00,weatherlink.com 1.10,2013-05-19 10:01:00,
2013-05-19 06:16:00,59.5,56.0,30.12,NE,49,0.0,4.0,89,0.00,,,0.00,weatherlink.com 1.10,2013-05-19 10:16:00,
2013-05-19 06:31:00,59.5,56.0,30.13,ENE,57,2.0,3.0,89,0.00,,,0.00,weatherlink.com 1.10,2013-05-19 10:31:00,
2013-05-19 06:46:00,59.7,57.0,30.13,ENE,77,1.0,4.0,89,0.00,,,0.00,weatherlink.com 1.10,2013-05-19 10:46:00,
2013-05-19 07:01:00,59.7,57.0,30.13,NE,36,0.0,3.0,89,0.00,,,0.00,weatherlink.com 1.10,2013-05-19 11:01:00,
2013-05-19 07:16:00,60.4,57.0,30.13,NNE,27,1.0,3.0,88,0.00,,,0.00,weatherlink.com 1.10,2013-05-19 11:16:00,
2013-05-19 07:31:00,61.1,57.0,30.14,ENE,62,2.0,3.0,87,0.00,,,0.00,weatherlink.com 1.10,2013-05-19 11:31:00,
2013-05-19 07:46:00,61.9,57.0,30.14,NE,34,3.0,6.0,85,0.00,,,0.00,weatherlink.com 1.10,2013-05-19 11:46:00,
2013-05-19 08:01:00,63.0,58.0,30.14,NE,50,2.0,6.0,83,0.00,,,0.00,weatherlink.com 1.10,2013-05-19 12:01:00,
2013-05-19 08:16:00,62.9,57.0,30.14,NE,44,0.0,3.0,82,0.00,,,0.00,weatherlink.com 1.10,2013-05-19 12:16:00,
2013-05-19 08:31:00,63.0,58.0,30.14,ENE,78,1.0,4.0,83,0.00,,,0.00,weatherlink.com 1.10,2013-05-19 12:31:00,
2013-05-19 08:46:00,63.5,58.0,30.14,ENE,71,1.0,2.0,83,0.00,,,0.00,weatherlink.com 1.10,2013-05-19 12:46:00,
2013-05-19 09:01:00,63.8,59.0,30.14,East,96,2.0,3.0,83,0.00,,,0.00,weatherlink.com 1.10,2013-05-19 13:01:00,
2013-05-19 09:16:00,64.2,59.0,30.14,North,5,1.0,3.0,82,0.00,,,0.00,weatherlink.com 1.10,2013-05-19 13:16:00,
2013-05-19 09:31:00,64.6,59.0,30.14,NE,56,0.0,2.0,82,0.00,,,0.00,weatherlink.com 1.10,2013-05-19 13:31:00,
2013-05-19 09:46:00,65.3,59.0,30.14,ENE,65,1.0,4.0,81,0.00,,,0.00,weatherlink.com 1.10,2013-05-19 13:46:00,
2013-05-19 10:01:00,67.0,60.0,30.13,NE,54,3.0,5.0,77,0.00,,,0.00,weatherlink.com 1.10,2013-05-19 14:01:00,
2013-05-19 10:16:00,67.1,60.0,30.14,ESE,117,1.0,3.0,78,0.00,,,0.00,weatherlink.com 1.10,2013-05-19 14:16:00,
2013-05-19 10:31:00,66.8,60.0,30.14,ESE,116,0.0,3.0,78,0.00,,,0.00,weatherlink.com 1.10,2013-05-19 14:31:00,
2013-05-19 10:46:00,67.2,60.0,30.13,ENE,60,0.0,4.0,78,0.00,,,0.00,weatherlink.com 1.10,2013-05-19 14:46:00,
2013-05-19 11:01:00,67.1,60.0,30.13,ENE,65,0.0,6.0,78,0.00,,,0.00,weatherlink.com 1.10,2013-05-19 15:01:00,
2013-05-19 11:16:00,67.8,61.0,30.13,NE,41,2.0,6.0,78,0.00,,,0.00,weatherlink.com 1.10,2013-05-19 15:16:00,
2013-05-19 11:31:00,68.6,61.0,30.12,East,97,3.0,5.0,76,0.00,,,0.00,weatherlink.com 1.10,2013-05-19 15:31:00,
2013-05-19 11:46:00,69.0,61.0,30.12,West,266,1.0,3.0,75,0.00,,,0.00,weatherlink.com 1.10,2013-05-19 15:46:00,
2013-05-19 12:02:00,69.3,61.0,30.12,ENE,67,2.0,4.0,74,0.00,,,0.00,weatherlink.com 1.10,2013-05-19 16:02:00,
2013-05-19 12:17:00,70.0,61.0,30.11,ENE,78,2.0,5.0,74,0.00,,,0.00,weatherlink.com 1.10,2013-05-19 16:17:00,
2013-05-19 12:32:00,69.9,61.0,30.11,East,101,0.0,7.0,74,0.00,,,0.00,weatherlink.com 1.10,2013-05-19 16:32:00,
2013-05-19 12:47:00,71.1,62.0,30.10,North,351,0.0,5.0,72,0.00,,,0.00,weatherlink.com 1.10,2013-05-19 16:47:00,
2013-05-19 13:02:00,72.7,62.0,30.09,ENE,71,3.0,5.0,70,0.00,,,0.00,weatherlink.com 1.10,2013-05-19 17:02:00,
2013-05-19 13:17:00,72.9,63.0,30.08,ESE,103,1.0,5.0,70,0.00,,,0.00,weatherlink.com 1.10,2013-05-19 17:17:00,
2013-05-19 13:32:00,74.1,63.0,30.07,ENE,70,2.0,5.0,69,0.00,,,0.00,weatherlink.com 1.10,2013-05-19 17:32:00,
2013-05-19 13:47:00,73.0,62.0,30.07,East,93,4.0,7.0,68,0.00,,,0.00,weatherlink.com 1.10,2013-05-19 17:47:00,
2013-05-19 14:02:00,73.4,63.0,30.06,NE,53,1.0,6.0,69,0.00,,,0.00,weatherlink.com 1.10,2013-05-19 18:02:00,
2013-05-19 14:17:00,73.7,62.0,30.06,ENE,59,4.0,7.0,67,0.00,,,0.00,weatherlink.com 1.10,2013-05-19 18:17:00,
2013-05-19 14:32:00,73.5,62.0,30.06,East,95,1.0,6.0,68,0.00,,,0.00,weatherlink.com 1.10,2013-05-19 18:32:00,
2013-05-19 14:47:00,73.7,63.0,30.05,NE,43,3.0,5.0,69,0.00,,,0.00,weatherlink.com 1.10,2013-05-19 18:47:00,
2013-05-19 15:02:00,73.8,63.0,30.05,ENE,65,6.0,6.0,69,0.00,,,0.00,weatherlink.com 1.10,2013-05-19 19:02:00,
2013-05-19 15:17:00,73.3,62.0,30.05,NE,53,1.0,5.0,68,0.00,,,0.00,weatherlink.com 1.10,2013-05-19 19:17:00,
2013-05-19 15:32:00,73.2,62.0,30.05,ENE,70,5.0,7.0,68,0.00,,,0.00,weatherlink.com 1.10,2013-05-19 19:32:00,
2013-05-19 15:47:00,72.9,62.0,30.05,East,84,1.0,7.0,69,0.00,,,0.00,weatherlink.com 1.10,2013-05-19 19:47:00,
2013-05-19 16:02:00,72.7,62.0,30.05,West,271,0.0,5.0,69,0.00,,,0.00,weatherlink.com 1.10,2013-05-19 20:02:00,
2013-05-19 16:17:00,72.8,62.0,30.05,ENE,77,2.0,5.0,70,0.00,,,0.00,weatherlink.com 1.10,2013-05-19 20:17:00,
2013-05-19 16:32:00,72.7,62.0,30.04,North,353,0.0,8.0,70,0.00,,,0.00,weatherlink.com 1.10,2013-05-19 20:32:00,
2013-05-19 16:47:00,73.1,62.0,30.04,ENE,65,1.0,8.0,69,0.00,,,0.00,weatherlink.com 1.10,2013-05-19 20:47:00,
2013-05-19 17:02:00,72.9,62.0,30.04,ESE,118,0.0,6.0,68,0.00,,,0.00,weatherlink.com 1.10,2013-05-19 21:02:00,
2013-05-19 17:17:00,72.6,62.0,30.04,WSW,256,6.0,6.0,70,0.00,,,0.00,weatherlink.com 1.10,2013-05-19 21:17:00,
2013-05-19 17:32:00,72.6,62.0,30.04,ENE,72,3.0,9.0,69,0.00,,,0.00,weatherlink.com 1.10,2013-05-19 21:32:00,
2013-05-19 17:47:00,72.0,61.0,30.04,NE,53,1.0,10.0,69,0.00,,,0.00,weatherlink.com 1.10,2013-05-19 21:47:00,
2013-05-19 18:02:00,71.6,62.0,30.04,East,99,1.0,8.0,71,0.00,,,0.00,weatherlink.com 1.10,2013-05-19 22:02:00,
2013-05-19 18:17:00,70.4,61.0,30.05,East,86,0.0,7.0,73,0.00,,,0.00,weatherlink.com 1.10,2013-05-19 22:17:00,
2013-05-19 18:32:00,69.6,61.0,30.05,East,91,3.0,5.0,74,0.00,,,0.00,weatherlink.com 1.10,2013-05-19 22:32:00,
2013-05-19 18:47:00,68.8,61.0,30.05,East,98,1.0,5.0,75,0.00,,,0.00,weatherlink.com 1.10,2013-05-19 22:47:00,
2013-05-19 19:02:00,68.3,61.0,30.04,East,92,2.0,7.0,77,0.00,,,0.00,weatherlink.com 1.10,2013-05-19 23:02:00,
2013-05-19 19:17:00,67.4,60.0,30.03,East,85,2.0,5.0,78,0.00,,,0.00,weatherlink.com 1.10,2013-05-19 23:17:00,
2013-05-19 19:32:00,66.9,60.0,30.03,NNE,13,2.0,7.0,79,0.00,,,0.00,weatherlink.com 1.10,2013-05-19 23:32:00,
2013-05-19 19:47:00,66.3,60.0,30.03,NE,49,2.0,6.0,80,0.00,,,0.00,weatherlink.com 1.10,2013-05-19 23:47:00,
2013-05-19 20:02:00,66.0,60.0,30.03,ENE,61,3.0,6.0,81,0.00,,,0.00,weatherlink.com 1.10,2013-05-20 00:02:00,
2013-05-19 20:17:00,65.8,60.0,30.04,ENE,70,2.0,5.0,82,0.00,,,0.00,weatherlink.com 1.10,2013-05-20 00:17:00,
2013-05-19 20:32:00,65.6,60.0,30.05,ENE,78,0.0,2.0,82,0.00,,,0.00,weatherlink.com 1.10,2013-05-20 00:32:00,
2013-05-19 20:47:00,65.5,60.0,30.05,ENE,74,2.0,3.0,83,0.00,,,0.00,weatherlink.com 1.10,2013-05-20 00:47:00,
2013-05-19 21:02:00,65.4,61.0,30.06,NE,41,3.0,3.0,84,0.00,,,0.00,weatherlink.com 1.10,2013-05-20 01:02:00,
2013-05-19 21:17:00,65.2,60.0,30.06,East,90,1.0,3.0,84,0.00,,,0.00,weatherlink.com 1.10,2013-05-20 01:17:00,
2013-05-19 21:32:00,65.1,60.0,30.06,ESE,115,0.0,3.0,84,0.00,,,0.00,weatherlink.com 1.10,2013-05-20 01:32:00,
2013-05-19 21:47:00,65.2,61.0,30.07,East,92,0.0,5.0,85,0.00,,,0.00,weatherlink.com 1.10,2013-05-20 01:47:00,
2013-05-19 22:02:00,65.3,60.0,30.07,NNE,33,0.0,3.0,84,0.00,,,0.00,weatherlink.com 1.10,2013-05-20 02:02:00,
2013-05-19 22:17:00,65.4,61.0,30.07,NNE,33,0.0,2.0,85,0.00,,,0.00,weatherlink.com 1.10,2013-05-20 02:17:00,
2013-05-19 22:32:00,65.5,61.0,30.07,ENE,58,1.0,1.0,84,0.00,,,0.00,weatherlink.com 1.10,2013-05-20 02:32:00,
2013-05-19 22:47:00,65.6,61.0,30.07,ENE,68,1.0,2.0,84,0.00,,,0.00,weatherlink.com 1.10,2013-05-20 02:47:00,
2013-05-19 23:02:00,65.5,61.0,30.06,NNE,18,0.0,3.0,85,0.00,,,0.00,weatherlink.com 1.10,2013-05-20 03:02:00,
2013-05-19 23:17:00,65.5,61.0,30.06,SW,229,0.0,2.0,85,0.00,,,0.00,weatherlink.com 1.10,2013-05-20 03:17:00,
2013-05-19 23:33:00,65.4,61.0,30.06,WSW,243,0.0,4.0,85,0.00,,,0.00,weatherlink.com 1.10,2013-05-20 03:33:00,
2013-05-19 23:47:00,65.0,60.0,30.05,NNW,338,0.0,1.0,85,0.00,,,0.00,weatherlink.com 1.10,2013-05-20 03:47:00,